Weather at Arlington Municipal Airport [CLOSED]

Public forecast

Using degrees Fahrenheit for public forecast. Weather courtesy of forecast.io.

Closest aviation weather report (METAR) to Arlington Municipal Airport

Closest report is Millington-Memphis Airport, 10.7 nm (19.7 km) WNW. Retrieved 2020/09/22 08:35 UTC (0 seconds ago):

KNQA 220835Z AUTO 14004KT 10SM 17/13 A3018 RMK A01

Closest aviation forecast (TAF) to Arlington Municipal Airport

Closest forecast is Memphis International Airport, 20.8 nm (38.5 km) SW. Retrieved 2020/09/22 06:22 UTC (2 hours ago):

TAF KMEM 220520Z 2206/2312 10008KT P6SM SCT100 SCT250 FM221300 13007KT P6SM VCSH BKN100 FM222100 08005KT P6SM OVC100 FM230200 06005KT P6SM VCSH OVC050 FM230700 13004KT P6SM -SHRA OVC050